Friday, November 17, 2017, 9:15 PM GMT
Back to Local

CYHZ, Halifax International Airport

Location: , , Canada Lat: 44.883
Local Time: 9:15 PM GMT (21:15 GMT) Lon: -63.5
Time Zone: GMT Elev: 475 ft

Show me the last for .
Show Coded

Time T Td Feel RH Dir Speed Gust Alt SLP Vis Weather Sky Remarks
2017-11-17 21:00 39 36 28 86 270° 22 29 29.37 29.38 15 BKN022 BKN080 None
2017-11-17 20:38 39 37 27 93 280° 20 30 29.36 29.37 15 BKN025 BKN085 None
2017-11-17 20:00 41 37 30 86 280° 24 30 29.34 29.36 15 -RA OVC027 None
2017-11-17 19:18 41 37 30 86 270° 22 29 29.33 29.34 15 -RA OVC019 None
2017-11-17 19:00 41 37 30 86 270° 22 30 29.33 29.34 15 OVC020 None
2017-11-17 18:00 41 37 30 86 270° 25 31 29.30 29.31 15 OVC016 None
2017-11-17 17:25 43 39 32 86 250° 24 35 29.30 29.31 15 OVC014 None
2017-11-17 17:00 43 39 32 86 240° 20 30 29.29 29.30 8 -RA OVC013 None
2017-11-17 16:41 43 39 33 86 240° 25 - 29.30 29.31 12 -DZ BKN013 None
2017-11-17 16:00 43 39 31 86 230° 22 37 29.30 29.31 15 BKN015 None
2017-11-17 15:36 43 39 32 86 250° 26 33 29.32 29.33 15 BKN015 None
2017-11-17 15:08 43 39 32 86 230° 21 31 29.31 29.32 15 -DZ BKN012 None
2017-11-17 15:00 43 39 32 86 230° 23 33 29.31 29.33 15 VCSH BKN014 Pressure falling rapidly
2017-11-17 14:41 43 39 32 86 240° 24 31 29.32 29.33 15 BKN014 None
2017-11-17 14:30 43 39 32 86 240° 22 30 29.33 29.34 15 -DZ OVC013 None
2017-11-17 14:00 43 39 32 86 230° 18 29 29.33 29.35 15 OVC014 None
2017-11-17 13:00 43 39 33 86 240° 14 26 29.35 29.36 15 BKN015 None
2017-11-17 12:00 45 41 35 87 230° 20 30 29.35 29.36 15 BKN014 None
2017-11-17 11:23 46 43 37 87 220° 22 29 29.33 29.35 15 BKN011 None
2017-11-17 11:00 46 45 38 93 220° 17 25 29.33 29.35 15 BKN017 None
2017-11-17 10:00 46 46 39 100 190° 13 18 29.33 29.34 15 BKN015 None
2017-11-17 09:42 48 46 42 93 210° 15 - 29.34 29.35 15 BKN014 None
2017-11-17 09:00 50 48 43 93 200° 10 22 29.35 29.36 15 FEW005 OVC028 None
2017-11-17 08:40 50 50 42 100 180° 18 29 29.37 29.38 12 -RA FEW005 OVC015 None
2017-11-17 08:00 48 48 45 100 120° 8 - 29.39 29.40 15 FEW020 BKN070 OVC090 None
2017-11-17 07:36 50 50 46 100 120° 10 - 29.41 29.43 6 -RA BR FEW005 BKN020 OVC070 Pressure falling rapidly
2017-11-17 07:15 48 48 46 100 160° 5 - 29.46 29.47 2 RA BR FEW005 OVC020 None
2017-11-17 07:00 48 48 40 100 250° 18 25 29.46 29.47 1 +RA BR FEW006 OVC025 Wind Shift: 52 min
2017-11-17 06:51 48 46 45 93 200° 7 - 29.47 29.49 1 RA BR FEW006 OVC025 None
2017-11-17 06:29 48 48 40 100 Variable 20 26 29.49 29.51 3 +RA BR OVC006 Pressure rising rapidly
2017-11-17 06:00 46 46 39 100 100° 13 21 29.50 29.51 3 RA BR OVC005 Pressure falling rapidly
2017-11-17 05:21 46 46 36 100 120° 28 38 29.54 29.56 1 RA BR OVC005 Pressure falling rapidly
2017-11-17 05:00 46 46 37 100 120° 25 35 29.57 29.58 2 -RA BR OVC005 Pressure falling rapidly
2017-11-17 04:20 46 46 37 100 120° 21 32 29.63 29.65 4 -RA BR OVC006 Pressure falling rapidly
2017-11-17 04:13 46 46 37 100 120° 23 32 29.65 29.66 2 -RA BR OVC006 Pressure falling rapidly
2017-11-17 04:00 46 46 37 100 120° 23 33 29.68 29.69 2 RA BR OVC006 Pressure falling rapidly
2017-11-17 03:12 46 46 37 100 130° 25 35 29.71 29.73 4 RA BR OVC007 Pressure falling rapidly
2017-11-17 03:00 46 46 37 100 130° 22 32 29.73 29.74 4 -RA BR OVC007 None
2017-11-17 02:42 46 46 37 100 130° 20 29 29.73 29.75 10 -RA BKN008 OVC012 Pressure falling rapidly
2017-11-17 02:00 46 45 37 93 130° 21 30 29.78 29.80 15 -RA BKN010 OVC024 None
2017-11-17 01:32 46 45 38 93 130° 17 26 29.79 29.80 15 SCT007 BKN019 BKN090 None
2017-11-17 01:00 46 45 39 93 130° 21 - 29.81 29.83 15 OVC008 None
2017-11-17 00:00 45 45 36 100 130° 21 - 29.84 29.86 15 BKN005 OVC013 None
2017-11-16 23:49 45 43 35 93 140° 17 25 29.85 29.87 15 BKN006 OVC013 None
2017-11-16 23:00 45 43 35 93 120° 15 25 29.87 29.89 15 OVC009 Pressure falling rapidly
2017-11-16 22:00 45 41 36 87 150° 14 23 29.94 29.96 14 OVC013 None

Support USWX by starting your Amazon purchase here.